N777MQ OEMA-OEJN
Flight info
| Callsign | N777MQ |
|---|---|
| Flight time | 0h 44m |
| Altitude | 30000 |
| Route | SISUD B544 RBG/N0507F290 B544 NOMDA |
| Aircraft | B77W/H-SDE1E2E3FGHIJ2J3J4J5M1RWXY/LB1D1 |
Departure
| Time | 2026-04-24 22:45 |
|---|---|
| Airport | Prince Mohammad Bin Abdulaziz Airport (OEMA) |
Arrival
| Time | 2026-04-24 23:29 |
|---|---|
| Airport | King Abdulaziz International Airport (OEJN) |
| Time | Latitude | Longitude | Altitude | Speed | Heading |
|---|---|---|---|---|---|
| 2026-04-24 22:34 | 24.54879 | 39.71390 | 2091 ft | 0 kts | 79° |
| 2026-04-24 22:37 | 24.54878 | 39.71383 | 2091 ft | 2 kts | 82° |
| 2026-04-24 22:38 | 24.54876 | 39.71361 | 2090 ft | 3 kts | 94° |
| 2026-04-24 22:38 | 24.54879 | 39.71340 | 2090 ft | 3 kts | 110° |
| 2026-04-24 22:38 | 24.54887 | 39.71320 | 2091 ft | 3 kts | 129° |
| 2026-04-24 22:38 | 24.54901 | 39.71305 | 2091 ft | 3 kts | 147° |
| 2026-04-24 22:39 | 24.54919 | 39.71294 | 2091 ft | 3 kts | 161° |
| 2026-04-24 22:39 | 24.54938 | 39.71288 | 2092 ft | 3 kts | 170° |
| 2026-04-24 22:39 | 24.54958 | 39.71285 | 2092 ft | 3 kts | 175° |
| 2026-04-24 22:39 | 24.54972 | 39.71284 | 2092 ft | 0 kts | 175° |
| 2026-04-24 22:40 | 24.54952 | 39.71288 | 2092 ft | 6 kts | 169° |
| 2026-04-24 22:41 | 24.54894 | 39.71296 | 2091 ft | 11 kts | 192° |
| 2026-04-24 22:41 | 24.54849 | 39.71218 | 2089 ft | 15 kts | 257° |
| 2026-04-24 22:41 | 24.54806 | 39.71137 | 2089 ft | 12 kts | 200° |
| 2026-04-24 22:41 | 24.54713 | 39.71146 | 2087 ft | 16 kts | 169° |
| 2026-04-24 22:42 | 24.54592 | 39.71172 | 2082 ft | 20 kts | 169° |
| 2026-04-24 22:42 | 24.54444 | 39.71204 | 2080 ft | 22 kts | 169° |
| 2026-04-24 22:42 | 24.54292 | 39.71236 | 2076 ft | 22 kts | 169° |
| 2026-04-24 22:42 | 24.54140 | 39.71268 | 2075 ft | 22 kts | 169° |
| 2026-04-24 22:43 | 24.53989 | 39.71300 | 2071 ft | 22 kts | 169° |
| 2026-04-24 22:43 | 24.53862 | 39.71311 | 2071 ft | 15 kts | 208° |
| 2026-04-24 22:43 | 24.53821 | 39.71206 | 2070 ft | 15 kts | 263° |
| 2026-04-24 22:43 | 24.53888 | 39.71131 | 2072 ft | 15 kts | 348° |
| 2026-04-24 22:44 | 24.54037 | 39.71099 | 2073 ft | 45 kts | 349° |
| 2026-04-24 22:44 | 24.54598 | 39.70980 | 2083 ft | 119 kts | 349° |
| 2026-04-24 22:44 | 24.55626 | 39.70761 | 2100 ft | 179 kts | 349° |
| 2026-04-24 22:44 | 24.56950 | 39.70489 | 2425 ft | 199 kts | 349° |
| 2026-04-24 22:45 | 24.58345 | 39.70195 | 3061 ft | 206 kts | 351° |
| 2026-04-24 22:45 | 24.59719 | 39.69902 | 3921 ft | 203 kts | 350° |
| 2026-04-24 22:45 | 24.61157 | 39.69594 | 4350 ft | 222 kts | 349° |
| 2026-04-24 22:45 | 24.62775 | 39.69252 | 4608 ft | 251 kts | 349° |
| 2026-04-24 22:46 | 24.64538 | 39.68879 | 5160 ft | 263 kts | 346° |
| 2026-04-24 22:46 | 24.66203 | 39.68059 | 5738 ft | 267 kts | 316° |
| 2026-04-24 22:46 | 24.67280 | 39.66434 | 6439 ft | 269 kts | 288° |
| 2026-04-24 22:46 | 24.67575 | 39.64397 | 7021 ft | 272 kts | 263° |
| 2026-04-24 22:47 | 24.67337 | 39.62320 | 7713 ft | 277 kts | 258° |
| 2026-04-24 22:47 | 24.67039 | 39.60255 | 8546 ft | 279 kts | 258° |
| 2026-04-24 22:47 | 24.66723 | 39.58129 | 9306 ft | 280 kts | 258° |
| 2026-04-24 22:47 | 24.66417 | 39.56034 | 9901 ft | 278 kts | 258° |
| 2026-04-24 22:48 | 24.66113 | 39.53929 | 10040 ft | 281 kts | 258° |
| 2026-04-24 22:48 | 24.65807 | 39.51803 | 10037 ft | 282 kts | 259° |
| 2026-04-24 22:48 | 24.65502 | 39.49674 | 10044 ft | 282 kts | 258° |
| 2026-04-24 22:48 | 24.65201 | 39.47555 | 10023 ft | 280 kts | 258° |
| 2026-04-24 22:49 | 24.64905 | 39.45472 | 10033 ft | 278 kts | 258° |
| 2026-04-24 22:49 | 24.64609 | 39.43376 | 10023 ft | 278 kts | 258° |
| 2026-04-24 22:49 | 24.64312 | 39.41277 | 10025 ft | 278 kts | 258° |
| 2026-04-24 22:49 | 24.64013 | 39.39162 | 10029 ft | 282 kts | 258° |
| 2026-04-24 22:50 | 24.63710 | 39.37030 | 10019 ft | 282 kts | 258° |
| 2026-04-24 22:50 | 24.63169 | 39.35024 | 10019 ft | 270 kts | 238° |
| 2026-04-24 22:50 | 24.61916 | 39.33497 | 10028 ft | 273 kts | 215° |
| 2026-04-24 22:50 | 24.60174 | 39.32559 | 10123 ft | 291 kts | 199° |
| 2026-04-24 22:51 | 24.58082 | 39.32254 | 10310 ft | 320 kts | 180° |
| 2026-04-24 22:51 | 24.55801 | 39.32492 | 10502 ft | 347 kts | 176° |
| 2026-04-24 22:51 | 24.53343 | 39.32832 | 10972 ft | 362 kts | 175° |
| 2026-04-24 22:51 | 24.50814 | 39.33199 | 11731 ft | 371 kts | 176° |
| 2026-04-24 22:52 | 24.48243 | 39.33565 | 12740 ft | 374 kts | 176° |
| 2026-04-24 22:52 | 24.45655 | 39.33921 | 13761 ft | 377 kts | 177° |
| 2026-04-24 22:52 | 24.43026 | 39.34270 | 14586 ft | 384 kts | 177° |
| 2026-04-24 22:52 | 24.40351 | 39.34614 | 15409 ft | 390 kts | 178° |
| 2026-04-24 22:53 | 24.37636 | 39.34952 | 16215 ft | 395 kts | 178° |
| 2026-04-24 22:53 | 24.34920 | 39.35296 | 17008 ft | 401 kts | 178° |
| 2026-04-24 22:53 | 24.32129 | 39.35646 | 17811 ft | 407 kts | 178° |
| 2026-04-24 22:53 | 24.29291 | 39.35995 | 18551 ft | 413 kts | 178° |
| 2026-04-24 22:54 | 24.26427 | 39.36349 | 19353 ft | 416 kts | 179° |
| 2026-04-24 22:54 | 24.23548 | 39.36707 | 20176 ft | 417 kts | 179° |
| 2026-04-24 22:54 | 24.20656 | 39.37065 | 20989 ft | 420 kts | 180° |
| 2026-04-24 22:54 | 24.17744 | 39.37427 | 21730 ft | 424 kts | 180° |
| 2026-04-24 22:55 | 24.14797 | 39.37793 | 22457 ft | 428 kts | 180° |
| 2026-04-24 22:55 | 24.11819 | 39.38161 | 23110 ft | 434 kts | 181° |
| 2026-04-24 22:55 | 24.08810 | 39.38532 | 23711 ft | 436 kts | 181° |
| 2026-04-24 22:55 | 24.05789 | 39.38907 | 23948 ft | 441 kts | 181° |
| 2026-04-24 22:56 | 24.02741 | 39.39276 | 23951 ft | 451 kts | 181° |
| 2026-04-24 22:56 | 23.99306 | 39.39704 | 23954 ft | 453 kts | 181° |
| 2026-04-24 22:56 | 23.93236 | 39.40457 | 23955 ft | 455 kts | 181° |
| 2026-04-24 22:56 | 23.88489 | 39.41049 | 23954 ft | 454 kts | 180° |
| 2026-04-24 22:57 | 23.74702 | 39.42523 | 23888 ft | 442 kts | 192° |
| 2026-04-24 22:57 | 23.70568 | 39.41223 | 23934 ft | 424 kts | 205° |
| 2026-04-24 22:57 | 23.57477 | 39.36663 | 24004 ft | 445 kts | 202° |
| 2026-04-24 22:57 | 23.52761 | 39.35041 | 23948 ft | 432 kts | 203° |
| 2026-04-24 22:58 | 23.44379 | 39.32132 | 23865 ft | 423 kts | 203° |
| 2026-04-24 22:58 | 23.34418 | 39.28670 | 23897 ft | 445 kts | 202° |
| 2026-04-24 22:58 | 23.29882 | 39.27110 | 23857 ft | 435 kts | 202° |
| 2026-04-24 22:58 | 23.27020 | 39.26130 | 23853 ft | 429 kts | 202° |
| 2026-04-24 22:59 | 23.24172 | 39.25152 | 23847 ft | 430 kts | 202° |
| 2026-04-24 22:59 | 23.21318 | 39.24168 | 23852 ft | 431 kts | 202° |
| 2026-04-24 22:59 | 23.15598 | 39.22196 | 23842 ft | 432 kts | 202° |
| 2026-04-24 23:00 | 23.12732 | 39.21209 | 23835 ft | 432 kts | 202° |
| 2026-04-24 23:00 | 23.09861 | 39.20219 | 23843 ft | 432 kts | 202° |
| 2026-04-24 23:00 | 23.06988 | 39.19233 | 23845 ft | 432 kts | 202° |
| 2026-04-24 23:00 | 23.04165 | 39.18264 | 23827 ft | 432 kts | 202° |
| 2026-04-24 23:01 | 23.01299 | 39.17280 | 23828 ft | 432 kts | 202° |
| 2026-04-24 23:01 | 22.98442 | 39.16299 | 23837 ft | 431 kts | 202° |
| 2026-04-24 23:01 | 22.95576 | 39.15314 | 23810 ft | 432 kts | 202° |
| 2026-04-24 23:01 | 22.92711 | 39.14331 | 23829 ft | 433 kts | 202° |
| 2026-04-24 23:02 | 22.89840 | 39.13345 | 23831 ft | 434 kts | 202° |
| 2026-04-24 23:02 | 22.86955 | 39.12356 | 23824 ft | 435 kts | 202° |
| 2026-04-24 23:02 | 22.84068 | 39.11368 | 23827 ft | 435 kts | 202° |
| 2026-04-24 23:02 | 22.81119 | 39.10567 | 23811 ft | 439 kts | 196° |
| 2026-04-24 23:03 | 22.78108 | 39.10081 | 23783 ft | 435 kts | 193° |
| 2026-04-24 23:03 | 22.75149 | 39.09818 | 23691 ft | 429 kts | 189° |
| 2026-04-24 23:03 | 22.72178 | 39.09835 | 23549 ft | 426 kts | 185° |
| 2026-04-24 23:03 | 22.69226 | 39.09949 | 23313 ft | 422 kts | 185° |
| 2026-04-24 23:04 | 22.66302 | 39.10062 | 22966 ft | 421 kts | 185° |
| 2026-04-24 23:04 | 22.63376 | 39.10168 | 22596 ft | 420 kts | 185° |
| 2026-04-24 23:04 | 22.60459 | 39.10245 | 22238 ft | 418 kts | 185° |
| 2026-04-24 23:04 | 22.57551 | 39.10280 | 21896 ft | 417 kts | 186° |
| 2026-04-24 23:05 | 22.54658 | 39.10301 | 21600 ft | 415 kts | 186° |
| 2026-04-24 23:05 | 22.51816 | 39.10321 | 21306 ft | 413 kts | 186° |
| 2026-04-24 23:05 | 22.48947 | 39.10345 | 20993 ft | 412 kts | 186° |
| 2026-04-24 23:05 | 22.46083 | 39.10371 | 20685 ft | 412 kts | 185° |
| 2026-04-24 23:06 | 22.43218 | 39.10400 | 20392 ft | 411 kts | 185° |
| 2026-04-24 23:06 | 22.40369 | 39.10432 | 20122 ft | 409 kts | 185° |
| 2026-04-24 23:06 | 22.37521 | 39.10464 | 19858 ft | 408 kts | 185° |
| 2026-04-24 23:06 | 22.34695 | 39.10496 | 19588 ft | 407 kts | 185° |
| 2026-04-24 23:07 | 22.31864 | 39.10528 | 19314 ft | 406 kts | 185° |
| 2026-04-24 23:07 | 22.29040 | 39.10560 | 19073 ft | 405 kts | 185° |
| 2026-04-24 23:07 | 22.26232 | 39.10592 | 18829 ft | 404 kts | 185° |
| 2026-04-24 23:07 | 22.23460 | 39.10623 | 18592 ft | 402 kts | 185° |
| 2026-04-24 23:08 | 22.20665 | 39.10654 | 18359 ft | 401 kts | 185° |
| 2026-04-24 23:08 | 22.17877 | 39.10685 | 18126 ft | 401 kts | 184° |
| 2026-04-24 23:08 | 22.15093 | 39.10716 | 17856 ft | 400 kts | 184° |
| 2026-04-24 23:08 | 22.12310 | 39.10747 | 17626 ft | 398 kts | 184° |
| 2026-04-24 23:09 | 22.09563 | 39.10689 | 17401 ft | 391 kts | 191° |
| 2026-04-24 23:09 | 22.07000 | 39.09923 | 17045 ft | 377 kts | 205° |
| 2026-04-24 23:09 | 22.04554 | 39.08867 | 16660 ft | 381 kts | 205° |
| 2026-04-24 23:09 | 22.02099 | 39.07863 | 16636 ft | 374 kts | 204° |
| 2026-04-24 23:10 | 21.99673 | 39.06897 | 16537 ft | 371 kts | 204° |
| 2026-04-24 23:10 | 21.97275 | 39.05952 | 16217 ft | 373 kts | 203° |
| 2026-04-24 23:10 | 21.94826 | 39.04991 | 15877 ft | 376 kts | 203° |
| 2026-04-24 23:10 | 21.92367 | 39.04028 | 15655 ft | 376 kts | 203° |
| 2026-04-24 23:11 | 21.89910 | 39.03067 | 15473 ft | 374 kts | 203° |
| 2026-04-24 23:11 | 21.87470 | 39.02113 | 15313 ft | 373 kts | 203° |
| 2026-04-24 23:11 | 21.85038 | 39.01161 | 15143 ft | 371 kts | 203° |
| 2026-04-24 23:11 | 21.82609 | 39.00211 | 14945 ft | 371 kts | 203° |
| 2026-04-24 23:12 | 21.80190 | 38.99275 | 14749 ft | 367 kts | 201° |
| 2026-04-24 23:12 | 21.77658 | 38.98826 | 14385 ft | 376 kts | 184° |
| 2026-04-24 23:12 | 21.75081 | 38.99221 | 14172 ft | 385 kts | 168° |
| 2026-04-24 23:12 | 21.72563 | 39.00227 | 13990 ft | 387 kts | 162° |
| 2026-04-24 23:13 | 21.70072 | 39.01292 | 13807 ft | 386 kts | 163° |
| 2026-04-24 23:13 | 21.67554 | 39.02329 | 13272 ft | 388 kts | 163° |
| 2026-04-24 23:13 | 21.65045 | 39.03336 | 12953 ft | 379 kts | 164° |
| 2026-04-24 23:13 | 21.62633 | 39.04287 | 12802 ft | 356 kts | 165° |
| 2026-04-24 23:14 | 21.60391 | 39.05166 | 12642 ft | 331 kts | 165° |
| 2026-04-24 23:14 | 21.58303 | 39.05983 | 12471 ft | 307 kts | 165° |
| 2026-04-24 23:14 | 21.56370 | 39.06740 | 12323 ft | 285 kts | 166° |
| 2026-04-24 23:14 | 21.54591 | 39.07437 | 12150 ft | 266 kts | 166° |
| 2026-04-24 23:15 | 21.52907 | 39.08097 | 11802 ft | 251 kts | 166° |
| 2026-04-24 23:15 | 21.51283 | 39.08699 | 11278 ft | 241 kts | 174° |
| 2026-04-24 23:15 | 21.49673 | 39.08653 | 10656 ft | 231 kts | 205° |
| 2026-04-24 23:15 | 21.48464 | 39.07678 | 10522 ft | 212 kts | 237° |
| 2026-04-24 23:16 | 21.47906 | 39.06219 | 10409 ft | 214 kts | 252° |
| 2026-04-24 23:16 | 21.47519 | 39.04663 | 10011 ft | 216 kts | 253° |
| 2026-04-24 23:16 | 21.47136 | 39.03101 | 9438 ft | 218 kts | 253° |
| 2026-04-24 23:16 | 21.46801 | 39.01501 | 8753 ft | 224 kts | 264° |
| 2026-04-24 23:17 | 21.47118 | 38.99856 | 8020 ft | 237 kts | 296° |
| 2026-04-24 23:17 | 21.48274 | 38.98556 | 7345 ft | 249 kts | 328° |
| 2026-04-24 23:17 | 21.49908 | 38.97908 | 6787 ft | 252 kts | 343° |
| 2026-04-24 23:17 | 21.51617 | 38.97410 | 6205 ft | 256 kts | 343° |
| 2026-04-24 23:18 | 21.53331 | 38.96900 | 5691 ft | 255 kts | 343° |
| 2026-04-24 23:18 | 21.55034 | 38.96385 | 5164 ft | 255 kts | 343° |
| 2026-04-24 23:18 | 21.56746 | 38.95860 | 4622 ft | 257 kts | 344° |
| 2026-04-24 23:18 | 21.58493 | 38.95562 | 4095 ft | 252 kts | 8° |
| 2026-04-24 23:19 | 21.60097 | 38.96153 | 3611 ft | 239 kts | 43° |
| 2026-04-24 23:19 | 21.60986 | 38.97531 | 3187 ft | 219 kts | 87° |
| 2026-04-24 23:19 | 21.60752 | 38.99068 | 3089 ft | 215 kts | 127° |
| 2026-04-24 23:19 | 21.59643 | 39.00085 | 3108 ft | 210 kts | 149° |
| 2026-04-24 23:20 | 21.58564 | 39.01167 | 3013 ft | 214 kts | 131° |
| 2026-04-24 23:20 | 21.57610 | 39.02387 | 3005 ft | 213 kts | 135° |
| 2026-04-24 23:20 | 21.56593 | 39.03533 | 2995 ft | 211 kts | 137° |
| 2026-04-24 23:20 | 21.55567 | 39.04651 | 2981 ft | 210 kts | 137° |
| 2026-04-24 23:21 | 21.54535 | 39.05760 | 2984 ft | 210 kts | 137° |
| 2026-04-24 23:21 | 21.53499 | 39.06869 | 2986 ft | 210 kts | 137° |
| 2026-04-24 23:21 | 21.52468 | 39.07943 | 2983 ft | 207 kts | 142° |
| 2026-04-24 23:21 | 21.51272 | 39.08715 | 2992 ft | 196 kts | 157° |
| 2026-04-24 23:22 | 21.50034 | 39.09233 | 2984 ft | 187 kts | 161° |
| 2026-04-24 23:22 | 21.48816 | 39.09711 | 2994 ft | 186 kts | 161° |
| 2026-04-24 23:22 | 21.47597 | 39.10188 | 2997 ft | 187 kts | 161° |
| 2026-04-24 23:22 | 21.46374 | 39.10668 | 2992 ft | 187 kts | 161° |
| 2026-04-24 23:23 | 21.45151 | 39.11149 | 2991 ft | 187 kts | 160° |
| 2026-04-24 23:23 | 21.44074 | 39.11887 | 2976 ft | 188 kts | 129° |
| 2026-04-24 23:23 | 21.43648 | 39.13228 | 3000 ft | 200 kts | 92° |
| 2026-04-24 23:23 | 21.43993 | 39.14695 | 3015 ft | 206 kts | 74° |
| 2026-04-24 23:24 | 21.44509 | 39.16116 | 2999 ft | 208 kts | 73° |
| 2026-04-24 23:24 | 21.45044 | 39.17559 | 2995 ft | 209 kts | 73° |
| 2026-04-24 23:24 | 21.45595 | 39.19009 | 3000 ft | 209 kts | 71° |
| 2026-04-24 23:24 | 21.46479 | 39.20248 | 2981 ft | 216 kts | 37° |
| 2026-04-24 23:25 | 21.47899 | 39.20815 | 3013 ft | 222 kts | 12° |
| 2026-04-24 23:25 | 21.49447 | 39.20762 | 2995 ft | 223 kts | 346° |
| 2026-04-24 23:25 | 21.50914 | 39.20331 | 3018 ft | 214 kts | 342° |
| 2026-04-24 23:25 | 21.52291 | 39.19828 | 2992 ft | 205 kts | 339° |
| 2026-04-24 23:26 | 21.53627 | 39.19300 | 2686 ft | 203 kts | 338° |
| 2026-04-24 23:26 | 21.54937 | 39.18779 | 2437 ft | 197 kts | 338° |
| 2026-04-24 23:26 | 21.56160 | 39.18294 | 2193 ft | 182 kts | 338° |
| 2026-04-24 23:26 | 21.57289 | 39.17846 | 1989 ft | 170 kts | 337° |
| 2026-04-24 23:27 | 21.58396 | 39.17405 | 1782 ft | 168 kts | 337° |
| 2026-04-24 23:27 | 21.59482 | 39.16974 | 1565 ft | 165 kts | 338° |
| 2026-04-24 23:27 | 21.60551 | 39.16555 | 1326 ft | 162 kts | 338° |
| 2026-04-24 23:27 | 21.61597 | 39.16137 | 1149 ft | 160 kts | 337° |
| 2026-04-24 23:28 | 21.62646 | 39.15721 | 947 ft | 160 kts | 337° |
| 2026-04-24 23:28 | 21.63669 | 39.15295 | 742 ft | 157 kts | 339° |
| 2026-04-24 23:28 | 21.64692 | 39.14885 | 563 ft | 157 kts | 338° |
| 2026-04-24 23:28 | 21.65713 | 39.14486 | 353 ft | 159 kts | 337° |
| 2026-04-24 23:29 | 21.66746 | 39.14074 | 146 ft | 158 kts | 339° |
| 2026-04-24 23:29 | 21.67758 | 39.13673 | 41 ft | 146 kts | 340° |
| 2026-04-24 23:29 | 21.68592 | 39.13349 | 34 ft | 106 kts | 340° |
| 2026-04-24 23:29 | 21.69027 | 39.13188 | 32 ft | 35 kts | 352° |
| 2026-04-24 23:30 | 21.69210 | 39.13198 | 30 ft | 24 kts | 9° |
| 2026-04-24 23:30 | 21.69286 | 39.13216 | 30 ft | 0 kts | 21° |
| 2026-04-24 23:30 | 21.69295 | 39.13220 | 30 ft | 3 kts | 21° |
| 2026-04-24 23:30 | 21.69332 | 39.13241 | 30 ft | 10 kts | 37° |
| 2026-04-24 23:31 | 21.69370 | 39.13322 | 31 ft | 12 kts | 93° |
| 2026-04-24 23:31 | 21.69318 | 39.13376 | 31 ft | 16 kts | 157° |
| 2026-04-24 23:31 | 21.69215 | 39.13415 | 31 ft | 18 kts | 160° |
| 2026-04-24 23:31 | 21.69067 | 39.13475 | 32 ft | 27 kts | 159° |
| 2026-04-24 23:32 | 21.68913 | 39.13535 | 32 ft | 21 kts | 160° |
| 2026-04-24 23:32 | 21.68767 | 39.13593 | 33 ft | 24 kts | 160° |
| 2026-04-24 23:32 | 21.68628 | 39.13647 | 33 ft | 20 kts | 160° |
| 2026-04-24 23:32 | 21.68495 | 39.13700 | 34 ft | 20 kts | 160° |
| 2026-04-24 23:33 | 21.68362 | 39.13753 | 35 ft | 20 kts | 160° |
| 2026-04-24 23:33 | 21.68274 | 39.13787 | 35 ft | 20 kts | 160° |
| 2026-04-24 23:33 | 21.68097 | 39.13857 | 36 ft | 21 kts | 160° |
| 2026-04-24 23:33 | 21.67954 | 39.13913 | 37 ft | 23 kts | 160° |
| 2026-04-24 23:34 | 21.67794 | 39.13977 | 38 ft | 26 kts | 160° |
| 2026-04-24 23:34 | 21.67618 | 39.14046 | 38 ft | 28 kts | 160° |
| 2026-04-24 23:34 | 21.67449 | 39.14113 | 39 ft | 24 kts | 160° |
| 2026-04-24 23:34 | 21.67342 | 39.14155 | 40 ft | 11 kts | 160° |
| 2026-04-24 23:35 | 21.67286 | 39.14215 | 40 ft | 13 kts | 113° |
| 2026-04-24 23:35 | 21.67269 | 39.14260 | 40 ft | 0 kts | 110° |
| 2026-04-24 23:35 | 21.67267 | 39.14268 | 40 ft | 0 kts | 110° |